Airfield :
LOGIN :

Register | Disclaimer

   EN    FR    IT 

 










Legend :    VFR   Marginal VFR   IFR   Intensive IFR   Very Intensive IFR
Visi :
Ceiling :
>= 8 km
>= 3000ft
5 to 8 km
1000 to 3000 ft
1500m to 5 km
500 to 1000 ft
800 to 1500m
200 to 500 ft
< 800m
< 200 ft
Symbols :   Thunderstorms  Fog  Heavy snow  Heavy precipitations  Wind > 20 kt
SIGMETs :     Misc.  Thunderstorms  Icing  Turbulence  Mountain Waves  Volcanic Ashes






- Airport Elevation : 160 ft
- IATA code : LRT


LFRH - Lorient Lann Bihoue

CURRENT METAR :
  • 302100Z AUTO 27006KT 9000 BKN012 BKN039 BKN048 14/13 Q1005 TEMPO 4900 -SHRA SCT015TCU

EXPIRED METARs :
  • 302030Z AUTO 26004KT 7000 BKN036 OVC052 14/14 Q1005 TEMPO 4900 -SHRA SCT015TCU
  • 302000Z AUTO 26007KT 9999 FEW013 BKN031 BKN038 14/14 Q1005 TEMPO 4900 -SHRA SCT015TCU
  • 301930Z AUTO 26008KT 9999 FEW005/// SCT011/// BKN023/// ///TCU 14/14 Q1005 TEMPO 4900 -SHRA BKN012
  • 301900Z AUTO 22013KT 7000 2600 RA BKN004/// BKN008/// OVC013/// ///TCU 15/15 Q1005 BECMG 29013KT NSW BKN012
  • 301830Z AUTO 20018KT 7000 -RA BKN005/// OVC009/// ///TCU 15/15 Q1005 BECMG 29013KT BKN012

TAF AMD TAF LFRH
Valid from the 30 at 18:00 until the 01 at 18:00 UTC


301717Z 3018/0118 20013G23KT 4000 RA BKN007 OVC014
TEMPO 3018/3019 2000 RA BKN004 SCT020CB
FM301900 29013KT 9999 BKN012
TEMPO 3021/0102 4900 -SHRA SCT015TCU
TEMPO 0106/0109 4900 -SHRA SCT015TCU
BECMG 0110/0112 22015KT
BECMG 0116/0118 22012G22KT 4900 RA BKN010



MET'MAP, your aeronautical weather chart ! - Copyright ORBIFLY December 2007 - Disclaimer

ORBIFLY MET'MAP TEAM :

Programming & Development : Alexandra Zaïnal
Concept & original design : Baudouin d'Aumeries
Assistance for programming : Marc-Olivier Méhu
Technical & hardware support : Manuel Goepfert

Contact : metmap@orbifly.com




SOURCES & CREDITS :

   NOAA